createdAt,value
2022-08-27T00:01:18.658Z,7.10
2022-08-27T00:03:21.274Z,7.30
2022-08-27T00:05:24.071Z,7.82
2022-08-27T00:07:26.661Z,7.63
2022-08-27T00:09:30.628Z,7.88
2022-08-27T00:11:34.657Z,6.63
2022-08-27T00:13:37.825Z,6.22
2022-08-27T00:15:43.475Z,6.30
2022-08-27T00:17:47.339Z,6.55
2022-08-27T00:19:49.914Z,6.15
2022-08-27T00:21:52.501Z,6.78
2022-08-27T00:23:55.061Z,6.38
2022-08-27T00:25:59.986Z,6.85
2022-08-27T00:28:03.842Z,7.47
2022-08-27T00:30:08.415Z,7.10
2022-08-27T00:32:11.415Z,7.47
2022-08-27T00:34:14.490Z,7.80
2022-08-27T00:36:17.079Z,7.28
2022-08-27T00:38:20.956Z,7.18
2022-08-27T00:40:24.064Z,7.40
2022-08-27T00:42:28.049Z,7.40
2022-08-27T00:44:34.063Z,7.57
2022-08-27T00:46:42.795Z,7.07
2022-08-27T00:48:45.915Z,7.00
2022-08-27T00:50:51.922Z,7.57
2022-08-27T00:53:00.072Z,7.43
2022-08-27T00:55:12.871Z,7.60
2022-08-27T00:57:16.486Z,6.50
2022-08-27T00:59:23.647Z,6.75
2022-08-27T01:01:35.827Z,6.57
2022-08-27T01:03:39.015Z,7.07
2022-08-27T01:05:43.549Z,6.88
2022-08-27T01:07:51.120Z,6.80
2022-08-27T01:09:56.262Z,6.35
2022-08-27T01:11:59.711Z,7.00
2022-08-27T01:14:04.929Z,7.55
2022-08-27T01:16:10.260Z,8.05
2022-08-27T01:18:15.137Z,7.25
2022-08-27T01:20:32.089Z,8.10
2022-08-27T01:22:44.855Z,8.00
2022-08-27T01:24:51.395Z,7.93
2022-08-27T01:26:54.193Z,7.30
2022-08-27T01:28:57.112Z,6.93
2022-08-27T01:30:59.799Z,6.65
2022-08-27T01:33:02.399Z,7.57
2022-08-27T01:35:07.760Z,7.53
2022-08-27T01:37:11.497Z,7.85
2022-08-27T01:39:14.744Z,8.25
2022-08-27T01:41:20.425Z,8.77
2022-08-27T01:43:23.028Z,9.60
2022-08-27T01:45:29.577Z,9.18
2022-08-27T01:47:32.180Z,8.38
2022-08-27T01:49:34.768Z,9.77
2022-08-27T01:51:37.738Z,8.35
2022-08-27T01:53:40.330Z,8.18
2022-08-27T01:55:48.205Z,8.75
2022-08-27T01:57:54.232Z,8.45
2022-08-27T01:59:58.051Z,8.65
2022-08-27T02:02:02.394Z,7.85
2022-08-27T02:04:05.447Z,7.97
2022-08-27T02:06:10.811Z,7.60
2022-08-27T02:08:13.642Z,7.97
2022-08-27T02:10:20.019Z,7.53
2022-08-27T02:12:22.704Z,7.45
2022-08-27T02:14:26.651Z,7.15
2022-08-27T02:16:29.287Z,6.78
2022-08-27T02:18:32.070Z,8.88
2022-08-27T02:20:35.686Z,8.18
2022-08-27T02:22:38.494Z,7.85
2022-08-27T02:24:42.123Z,6.97
2022-08-27T02:26:44.828Z,8.18
2022-08-27T02:28:47.437Z,8.57
2022-08-27T02:30:51.404Z,8.57
2022-08-27T02:32:53.992Z,8.63
2022-08-27T02:34:57.147Z,8.43
2022-08-27T02:36:59.732Z,8.50
2022-08-27T02:39:02.302Z,8.40
2022-08-27T02:41:04.980Z,9.27
2022-08-27T02:43:07.750Z,8.05
2022-08-27T02:45:10.834Z,8.07
2022-08-27T02:47:15.381Z,8.23
2022-08-27T02:49:18.150Z,7.93
2022-08-27T02:51:20.757Z,7.60
2022-08-27T02:53:24.691Z,7.57
2022-08-27T02:55:28.264Z,9.75
2022-08-27T02:57:31.335Z,9.32
2022-08-27T02:59:38.951Z,9.40
2022-08-27T03:01:41.665Z,9.13
2022-08-27T03:03:45.685Z,9.65
2022-08-27T03:05:48.285Z,9.10
2022-08-27T03:07:51.157Z,8.75
2022-08-27T03:09:53.741Z,9.30
2022-08-27T03:11:56.777Z,8.57
2022-08-27T03:13:59.615Z,9.95
2022-08-27T03:16:02.997Z,9.40
2022-08-27T03:18:20.133Z,8.40
2022-08-27T03:20:25.048Z,9.85
2022-08-27T03:22:27.634Z,9.85
2022-08-27T03:24:30.237Z,10.15
2022-08-27T03:26:34.522Z,10.13
2022-08-27T03:28:37.176Z,11.43
2022-08-27T03:30:39.837Z,10.60
2022-08-27T03:32:43.051Z,10.60
2022-08-27T03:34:45.643Z,10.25
2022-08-27T03:36:51.334Z,10.82
2022-08-27T03:38:54.528Z,9.05
2022-08-27T03:40:57.164Z,9.18
2022-08-27T03:42:59.952Z,9.32
2022-08-27T03:45:02.640Z,9.70
2022-08-27T03:47:05.518Z,9.57
2022-08-27T03:49:08.065Z,10.50
2022-08-27T03:51:13.804Z,10.05
2022-08-27T03:53:20.332Z,10.68
2022-08-27T03:55:22.990Z,9.70
2022-08-27T03:57:25.538Z,10.93
2022-08-27T03:59:28.358Z,11.50
2022-08-27T04:01:31.608Z,12.45
2022-08-27T04:03:35.300Z,12.90
2022-08-27T04:05:37.881Z,13.73
2022-08-27T04:07:41.112Z,12.52
2022-08-27T04:09:45.063Z,14.15
2022-08-27T04:11:47.673Z,13.05
2022-08-27T04:13:50.273Z,15.00
2022-08-27T04:15:56.633Z,12.82
2022-08-27T04:17:59.458Z,13.68
2022-08-27T04:20:18.839Z,13.63
2022-08-27T04:22:24.741Z,14.25
2022-08-27T04:24:27.370Z,14.30
2022-08-27T04:26:31.501Z,11.57
2022-08-27T04:28:38.415Z,12.35
2022-08-27T04:30:42.908Z,13.75
2022-08-27T04:32:45.479Z,13.57
2022-08-27T04:34:48.059Z,14.00
2022-08-27T04:36:50.651Z,14.40
2022-08-27T04:38:53.211Z,14.07
2022-08-27T04:41:13.696Z,13.85
2022-08-27T04:43:17.834Z,15.10
2022-08-27T04:45:20.466Z,13.85
2022-08-27T04:47:23.068Z,15.30
2022-08-27T04:49:27.315Z,14.00
2022-08-27T04:51:31.203Z,13.75
2022-08-27T04:53:34.099Z,13.20
2022-08-27T04:55:42.404Z,13.98
2022-08-27T04:57:45.162Z,14.70
2022-08-27T04:59:49.150Z,13.18
2022-08-27T05:01:51.837Z,12.43
2022-08-27T05:03:55.658Z,13.45
2022-08-27T05:06:02.499Z,13.82
2022-08-27T05:08:07.069Z,13.10
2022-08-27T05:10:10.427Z,13.57
2022-08-27T05:12:13.024Z,12.95
2022-08-27T05:14:16.643Z,13.63
2022-08-27T05:16:23.352Z,13.73
2022-08-27T05:18:26.049Z,13.85
2022-08-27T05:20:28.713Z,13.43
2022-08-27T05:22:31.291Z,12.68
2022-08-27T05:24:33.884Z,16.55
2022-08-27T05:26:37.714Z,15.90
2022-08-27T05:28:40.300Z,14.98
2022-08-27T05:30:49.301Z,13.50
2022-08-27T05:32:59.320Z,14.15
2022-08-27T05:35:01.888Z,12.52
2022-08-27T05:37:04.949Z,13.48
2022-08-27T05:39:08.276Z,14.32
2022-08-27T05:41:13.831Z,16.10
2022-08-27T05:43:17.470Z,13.38
2022-08-27T05:45:20.039Z,18.25
2022-08-27T05:47:22.934Z,19.10
2022-08-27T05:49:26.863Z,18.48
2022-08-27T05:51:31.502Z,16.83
2022-08-27T05:53:34.035Z,15.85
2022-08-27T05:55:39.165Z,17.15
2022-08-27T05:57:41.712Z,20.23
2022-08-27T06:00:02.020Z,20.67
2022-08-27T06:02:05.887Z,21.15
2022-08-27T06:04:08.856Z,19.88
2022-08-27T06:06:12.919Z,19.90
2022-08-27T06:08:15.474Z,19.77
2022-08-27T06:10:18.041Z,21.58
2022-08-27T06:12:28.128Z,21.65
2022-08-27T06:14:31.218Z,19.98
2022-08-27T06:16:33.824Z,20.63
2022-08-27T06:18:37.863Z,20.70
2022-08-27T06:20:40.559Z,24.67
2022-08-27T06:22:47.379Z,23.63
2022-08-27T06:24:50.103Z,24.15
2022-08-27T06:26:54.031Z,21.85
2022-08-27T06:28:58.033Z,23.73
2022-08-27T06:31:04.852Z,23.83
2022-08-27T06:33:07.473Z,24.90
2022-08-27T06:35:10.302Z,24.83
2022-08-27T06:37:12.922Z,24.63
2022-08-27T06:39:17.177Z,24.33
2022-08-27T06:41:23.448Z,23.35
2022-08-27T06:43:27.276Z,24.63
2022-08-27T06:45:29.879Z,21.80
2022-08-27T06:47:35.779Z,20.73
2022-08-27T06:49:40.345Z,24.67
2022-08-27T06:51:46.748Z,24.33
2022-08-27T06:53:49.671Z,23.33
2022-08-27T06:55:53.621Z,21.25
2022-08-27T06:57:56.537Z,22.65
2022-08-27T06:59:59.547Z,21.95
2022-08-27T07:02:02.485Z,22.10
2022-08-27T07:04:07.115Z,21.73
2022-08-27T07:06:11.734Z,22.00
2022-08-27T07:08:14.318Z,21.70
2022-08-27T07:10:16.898Z,21.33
2022-08-27T07:12:21.542Z,21.30
2022-08-27T07:14:37.692Z,21.48
2022-08-27T07:16:41.226Z,21.80
2022-08-27T07:18:44.186Z,20.70
2022-08-27T07:20:47.768Z,22.63
2022-08-27T07:22:52.058Z,22.25
2022-08-27T07:24:54.629Z,22.30
2022-08-27T07:26:57.518Z,22.80
2022-08-27T07:29:01.829Z,22.63
2022-08-27T07:31:05.058Z,22.73
2022-08-27T07:33:07.727Z,24.33
2022-08-27T07:35:10.618Z,21.60
2022-08-27T07:37:14.929Z,24.00
2022-08-27T07:39:17.842Z,25.55
2022-08-27T07:41:20.546Z,26.58
2022-08-27T07:43:40.840Z,26.40
2022-08-27T07:45:48.581Z,27.40
2022-08-27T07:47:51.827Z,28.45
2022-08-27T07:49:54.444Z,27.52
2022-08-27T07:51:57.148Z,29.05
2022-08-27T07:54:00.087Z,28.73
2022-08-27T07:56:07.719Z,27.80
2022-08-27T07:58:11.544Z,24.45
2022-08-27T08:00:15.878Z,25.73
2022-08-27T08:02:20.253Z,27.58
2022-08-27T08:04:23.619Z,26.52
2022-08-27T08:06:26.171Z,27.65
2022-08-27T08:08:28.910Z,23.23
2022-08-27T08:10:35.405Z,29.20
2022-08-27T08:12:39.281Z,28.13
2022-08-27T08:14:42.087Z,27.45
2022-08-27T08:16:45.071Z,26.35
2022-08-27T08:18:49.055Z,29.05
2022-08-27T08:20:58.457Z,29.83
2022-08-27T08:23:03.086Z,25.80
2022-08-27T08:25:07.011Z,28.35
2022-08-27T08:27:13.309Z,29.48
2022-08-27T08:29:18.004Z,29.17
2022-08-27T08:31:21.180Z,28.42
2022-08-27T08:33:24.448Z,30.35
2022-08-27T08:35:28.365Z,33.95
2022-08-27T08:37:37.871Z,28.83
2022-08-27T08:39:40.677Z,30.33
2022-08-27T08:41:49.572Z,29.33
2022-08-27T08:43:52.424Z,27.42
2022-08-27T08:45:57.007Z,30.38
2022-08-27T08:48:05.718Z,29.70
2022-08-27T08:50:15.785Z,29.17
2022-08-27T08:52:43.911Z,28.83
2022-08-27T08:54:46.884Z,30.10
2022-08-27T08:56:56.828Z,29.35
2022-08-27T08:59:03.440Z,31.85
2022-08-27T09:01:09.035Z,28.60
2022-08-27T09:03:13.716Z,30.50
2022-08-27T09:05:16.318Z,28.40
2022-08-27T09:07:24.963Z,29.25
2022-08-27T09:09:35.700Z,29.77
2022-08-27T09:11:45.570Z,30.93
2022-08-27T09:13:52.139Z,33.58
2022-08-27T09:15:57.984Z,30.13
2022-08-27T09:18:14.046Z,28.77
2022-08-27T09:20:20.508Z,30.52
2022-08-27T09:22:38.363Z,30.52
2022-08-27T09:24:52.571Z,31.13
2022-08-27T09:26:55.495Z,24.38
2022-08-27T09:29:20.135Z,27.55
2022-08-27T09:31:23.026Z,29.77
2022-08-27T09:33:25.923Z,33.63
2022-08-27T09:35:47.821Z,33.10
2022-08-27T09:37:54.272Z,31.92
2022-08-27T09:40:04.107Z,28.30
2022-08-27T09:42:08.140Z,29.70
2022-08-27T09:44:13.008Z,33.97
2022-08-27T09:46:21.316Z,35.60
2022-08-27T09:48:27.768Z,36.33
2022-08-27T09:50:39.549Z,27.77
2022-08-27T09:52:51.276Z,28.42
2022-08-27T09:54:55.791Z,27.15
2022-08-27T09:57:00.721Z,27.15
2022-08-27T09:59:06.961Z,28.27
2022-08-27T10:01:21.550Z,30.17
2022-08-27T10:03:24.163Z,31.35
2022-08-27T10:05:30.458Z,29.58
2022-08-27T10:07:42.648Z,30.73
2022-08-27T10:09:51.869Z,30.67
2022-08-27T10:12:04.823Z,31.05
2022-08-27T10:14:14.467Z,29.85
2022-08-27T10:16:47.297Z,27.55
2022-08-27T10:19:01.370Z,27.05
2022-08-27T10:21:20.100Z,27.95
2022-08-27T10:23:32.983Z,27.10
2022-08-27T10:25:43.954Z,28.00
2022-08-27T10:27:59.064Z,28.40
2022-08-27T10:30:08.442Z,27.83
2022-08-27T10:32:25.399Z,29.08
2022-08-27T10:34:36.480Z,30.40
2022-08-27T10:36:52.871Z,36.05
2022-08-27T10:39:03.795Z,28.75
2022-08-27T10:41:16.795Z,29.25
2022-08-27T10:43:52.253Z,28.85
2022-08-27T10:46:05.880Z,29.30
2022-08-27T10:48:23.187Z,28.23
2022-08-27T10:50:31.372Z,34.72
2022-08-27T10:52:39.113Z,30.50
2022-08-27T10:54:47.676Z,30.52
2022-08-27T10:57:22.763Z,29.58
2022-08-27T10:59:32.186Z,26.35
2022-08-27T11:01:45.069Z,36.78
2022-08-27T11:03:52.844Z,34.88
2022-08-27T11:05:57.096Z,30.85
2022-08-27T11:08:05.237Z,32.38
2022-08-27T11:10:14.762Z,30.40
2022-08-27T11:12:22.838Z,35.17
2022-08-27T11:14:32.191Z,30.08
2022-08-27T11:16:45.281Z,31.48
2022-08-27T11:18:52.650Z,35.17
2022-08-27T11:21:00.250Z,33.72
2022-08-27T11:23:06.860Z,35.15
2022-08-27T11:25:28.081Z,30.55
2022-08-27T11:27:34.304Z,38.20
2022-08-27T11:29:46.402Z,38.20
2022-08-27T11:31:55.395Z,29.38
2022-08-27T11:34:04.515Z,31.08
2022-08-27T11:36:31.469Z,31.00
2022-08-27T11:38:46.682Z,28.73
2022-08-27T11:41:01.115Z,30.05
2022-08-27T11:43:07.076Z,27.67
2022-08-27T11:45:19.488Z,33.50
2022-08-27T11:47:24.862Z,34.25
2022-08-27T11:49:30.745Z,32.72
2022-08-27T11:51:35.744Z,28.20
2022-08-27T11:53:52.008Z,30.83
2022-08-27T11:55:55.663Z,26.17
2022-08-27T11:58:09.754Z,29.55
2022-08-27T12:00:19.257Z,26.55
2022-08-27T12:02:26.051Z,29.52
2022-08-27T12:04:37.192Z,25.23
2022-08-27T12:06:44.921Z,22.08
2022-08-27T12:08:48.127Z,21.77
2022-08-27T12:11:10.061Z,20.77
2022-08-27T12:13:20.511Z,19.40
2022-08-27T12:15:34.544Z,19.27
2022-08-27T12:17:46.516Z,19.05
2022-08-27T12:20:04.743Z,16.85
2022-08-27T12:22:31.578Z,17.67
2022-08-27T12:24:50.441Z,18.02
2022-08-27T12:26:58.950Z,16.58
2022-08-27T12:29:27.686Z,15.02
2022-08-27T12:31:32.592Z,14.68
2022-08-27T12:33:41.833Z,14.10
2022-08-27T12:35:47.208Z,16.38
2022-08-27T12:37:52.122Z,14.23
2022-08-27T12:40:03.251Z,13.75
2022-08-27T12:42:14.088Z,14.48
2022-08-27T12:44:27.721Z,13.73
2022-08-27T12:46:32.012Z,13.23
2022-08-27T12:48:41.629Z,14.40
2022-08-27T12:50:44.261Z,13.75
2022-08-27T12:53:02.210Z,13.90
2022-08-27T12:55:20.656Z,13.38
2022-08-27T12:57:31.387Z,14.75
2022-08-27T12:59:59.985Z,14.00
2022-08-27T13:02:16.651Z,13.93
2022-08-27T13:04:23.766Z,13.55
2022-08-27T13:06:29.572Z,13.35
2022-08-27T13:08:35.056Z,12.32
2022-08-27T13:10:37.691Z,11.00
2022-08-27T13:12:40.348Z,11.52
2022-08-27T13:14:42.945Z,12.50
2022-08-27T13:16:51.274Z,12.88
2022-08-27T13:18:55.629Z,13.50
2022-08-27T13:21:03.056Z,13.23
2022-08-27T13:23:08.269Z,10.35
2022-08-27T13:25:21.979Z,10.90
2022-08-27T13:27:27.025Z,13.50
2022-08-27T13:29:30.138Z,12.93
2022-08-27T13:31:34.252Z,9.52
2022-08-27T13:33:38.387Z,10.40
2022-08-27T13:35:45.117Z,10.98
2022-08-27T13:37:53.222Z,11.98
2022-08-27T13:39:57.778Z,11.45
2022-08-27T13:42:02.644Z,11.48
2022-08-27T13:44:11.405Z,10.52
2022-08-27T13:46:19.130Z,10.15
2022-08-27T13:48:24.346Z,11.70
2022-08-27T13:50:30.259Z,9.65
2022-08-27T13:52:57.820Z,9.73
2022-08-27T13:55:05.809Z,9.68
2022-08-27T13:57:14.080Z,12.00
2022-08-27T13:59:24.789Z,10.25
2022-08-27T14:01:32.805Z,11.10
2022-08-27T14:03:39.030Z,10.50
2022-08-27T14:05:48.765Z,10.27
2022-08-27T14:07:55.703Z,10.52
2022-08-27T14:10:02.992Z,11.73
2022-08-27T14:12:09.047Z,12.45
2022-08-27T14:14:14.069Z,9.40
2022-08-27T14:16:25.120Z,9.73
2022-08-27T14:18:54.985Z,9.02
2022-08-27T14:20:54.733Z,9.27
2022-08-27T14:23:01.952Z,8.43
2022-08-27T14:25:05.774Z,8.20
2022-08-27T14:27:11.688Z,9.15
2022-08-27T14:29:14.241Z,8.05
2022-08-27T14:31:16.973Z,7.80
2022-08-27T14:33:19.709Z,8.25
2022-08-27T14:35:24.892Z,8.40
2022-08-27T14:37:28.207Z,7.95
2022-08-27T14:39:32.677Z,7.85
2022-08-27T14:41:35.332Z,6.07
2022-08-27T14:43:38.245Z,6.43
2022-08-27T14:45:42.509Z,6.35
2022-08-27T14:47:45.303Z,6.78
2022-08-27T14:49:48.513Z,6.60
2022-08-27T14:51:51.211Z,5.65
2022-08-27T14:53:54.727Z,5.82
2022-08-27T14:56:01.654Z,5.97
2022-08-27T14:58:04.663Z,6.03
2022-08-27T15:00:09.874Z,6.70
2022-08-27T15:02:14.713Z,6.88
2022-08-27T15:04:17.615Z,6.22
2022-08-27T15:06:22.339Z,7.30
2022-08-27T15:08:29.362Z,7.40
2022-08-27T15:10:34.807Z,6.82
2022-08-27T15:12:39.682Z,7.50
2022-08-27T15:14:44.049Z,7.28
2022-08-27T15:16:47.622Z,6.20
2022-08-27T15:18:59.270Z,7.03
2022-08-27T15:21:04.207Z,7.50
2022-08-27T15:23:06.849Z,6.47
2022-08-27T15:25:10.879Z,5.88
2022-08-27T15:27:13.816Z,8.60
2022-08-27T15:29:18.683Z,7.72
2022-08-27T15:31:21.525Z,5.95
2022-08-27T15:33:24.158Z,6.40
2022-08-27T15:35:28.494Z,5.85
2022-08-27T15:37:31.330Z,7.47
2022-08-27T15:39:33.901Z,5.95
2022-08-27T15:42:03.093Z,5.97
2022-08-27T15:44:01.625Z,7.43
2022-08-27T15:46:06.300Z,6.22
2022-08-27T15:48:10.619Z,6.95
2022-08-27T15:50:13.392Z,6.88
2022-08-27T15:52:17.876Z,7.95
2022-08-27T15:54:20.523Z,6.13
2022-08-27T15:56:23.540Z,6.38
2022-08-27T15:58:29.235Z,7.80
2022-08-27T16:00:33.707Z,7.75
2022-08-27T16:02:37.773Z,7.05
2022-08-27T16:04:40.397Z,7.55
2022-08-27T16:06:42.990Z,7.35
2022-08-27T16:08:45.692Z,8.25
2022-08-27T16:10:48.285Z,7.55
2022-08-27T16:12:51.136Z,8.32
2022-08-27T16:14:53.770Z,8.02
2022-08-27T16:16:57.767Z,7.75
2022-08-27T16:19:04.061Z,8.55
2022-08-27T16:21:07.075Z,9.27
2022-08-27T16:23:09.677Z,8.25
2022-08-27T16:25:16.491Z,8.65
2022-08-27T16:27:20.968Z,8.18
2022-08-27T16:29:23.607Z,8.50
2022-08-27T16:31:26.322Z,8.50
2022-08-27T16:33:30.395Z,8.20
2022-08-27T16:35:34.314Z,8.30
2022-08-27T16:37:36.916Z,8.23
2022-08-27T16:39:40.750Z,8.10
2022-08-27T16:41:43.510Z,8.10
2022-08-27T16:43:48.635Z,8.15
2022-08-27T16:45:52.590Z,7.95
2022-08-27T16:48:13.211Z,7.47
2022-08-27T16:50:33.649Z,8.35
2022-08-27T16:52:37.633Z,7.95
2022-08-27T16:54:40.967Z,8.80
2022-08-27T16:56:43.672Z,8.48
2022-08-27T16:58:50.960Z,8.82
2022-08-27T17:00:56.105Z,8.55
2022-08-27T17:02:58.991Z,8.70
2022-08-27T17:05:17.813Z,8.60
2022-08-27T17:07:25.791Z,9.65
2022-08-27T17:09:30.124Z,9.50
2022-08-27T17:11:33.710Z,9.57
2022-08-27T17:13:39.596Z,9.10
2022-08-27T17:15:42.730Z,9.40
2022-08-27T17:17:46.378Z,9.73
2022-08-27T17:19:48.983Z,9.35
2022-08-27T17:21:52.427Z,9.48
2022-08-27T17:23:55.424Z,9.30
2022-08-27T17:25:59.607Z,10.02
2022-08-27T17:28:02.201Z,9.32
2022-08-27T17:30:05.660Z,10.02
2022-08-27T17:32:10.099Z,10.45
2022-08-27T17:34:17.045Z,9.15
2022-08-27T17:36:21.232Z,10.52
2022-08-27T17:38:23.785Z,9.63
2022-08-27T17:40:26.473Z,9.30
2022-08-27T17:42:31.608Z,9.15
2022-08-27T17:44:37.083Z,9.52
2022-08-27T17:46:39.680Z,9.23
2022-08-27T17:48:42.613Z,9.38
2022-08-27T17:50:45.192Z,9.75
2022-08-27T17:52:47.837Z,10.10
2022-08-27T17:54:52.051Z,9.38
2022-08-27T17:56:54.642Z,9.52
2022-08-27T17:58:58.858Z,9.45
2022-08-27T18:01:01.576Z,10.18
2022-08-27T18:03:04.584Z,9.27
2022-08-27T18:05:08.892Z,10.27
2022-08-27T18:07:11.802Z,10.43
2022-08-27T18:09:15.905Z,10.27
2022-08-27T18:11:18.615Z,9.65
2022-08-27T18:13:21.465Z,10.07
2022-08-27T18:15:28.116Z,10.15
2022-08-27T18:17:31.959Z,9.23
2022-08-27T18:19:34.960Z,9.18
2022-08-27T18:21:46.369Z,10.50
2022-08-27T18:23:49.802Z,10.68
2022-08-27T18:25:52.544Z,10.50
2022-08-27T18:27:58.000Z,10.02
2022-08-27T18:30:01.753Z,10.18
2022-08-27T18:32:05.946Z,9.80
2022-08-27T18:34:08.582Z,10.85
2022-08-27T18:36:11.452Z,11.18
2022-08-27T18:38:14.180Z,10.40
2022-08-27T18:40:19.332Z,10.40
2022-08-27T18:42:22.057Z,10.05
2022-08-27T18:44:26.752Z,11.63
2022-08-27T18:46:29.432Z,10.00
2022-08-27T18:48:34.069Z,10.35
2022-08-27T18:50:36.686Z,11.75
2022-08-27T18:52:40.253Z,12.40
2022-08-27T18:54:44.027Z,12.23
2022-08-27T18:56:46.615Z,12.38
2022-08-27T18:58:49.605Z,11.13
2022-08-27T19:00:56.691Z,12.20
2022-08-27T19:03:01.585Z,10.98
2022-08-27T19:05:10.557Z,10.98
2022-08-27T19:07:15.113Z,10.90
2022-08-27T19:09:18.390Z,12.13
2022-08-27T19:11:21.113Z,12.95
2022-08-27T19:13:23.885Z,12.27
2022-08-27T19:15:26.534Z,13.07
2022-08-27T19:17:33.807Z,13.00
2022-08-27T19:19:36.435Z,13.43
2022-08-27T19:21:41.090Z,13.77
2022-08-27T19:23:44.183Z,13.32
2022-08-27T19:25:48.212Z,12.18
2022-08-27T19:27:53.784Z,12.73
2022-08-27T19:29:56.564Z,14.25
2022-08-27T19:31:59.236Z,13.95
2022-08-27T19:34:01.865Z,13.52
2022-08-27T19:36:05.181Z,14.57
2022-08-27T19:38:11.838Z,14.80
2022-08-27T19:40:14.844Z,15.07
2022-08-27T19:42:18.422Z,13.23
2022-08-27T19:44:21.351Z,15.40
2022-08-27T19:46:26.366Z,15.02
2022-08-27T19:48:29.445Z,15.35
2022-08-27T19:50:32.630Z,14.90
2022-08-27T19:52:35.278Z,14.25
2022-08-27T19:54:51.993Z,15.40
2022-08-27T19:59:14.529Z,16.40
2022-08-27T20:01:23.912Z,14.15
2022-08-27T20:03:26.797Z,14.48
2022-08-27T20:05:29.966Z,15.35
2022-08-27T20:07:32.831Z,14.50
2022-08-27T20:09:40.726Z,14.73
2022-08-27T20:11:45.797Z,14.32
2022-08-27T20:13:50.690Z,13.48
2022-08-27T20:15:53.680Z,14.27
2022-08-27T20:17:59.276Z,14.52
2022-08-27T20:20:02.500Z,15.75
2022-08-27T20:22:05.317Z,14.55
2022-08-27T20:24:08.013Z,14.40
2022-08-27T20:26:11.961Z,14.32
2022-08-27T20:28:37.659Z,14.95
2022-08-27T20:30:39.073Z,14.70
2022-08-27T20:32:41.887Z,15.25
2022-08-27T20:34:45.400Z,14.77
2022-08-27T20:36:48.005Z,15.52
2022-08-27T20:38:55.487Z,14.40
2022-08-27T20:40:58.355Z,14.27
2022-08-27T20:43:02.613Z,14.43
2022-08-27T20:45:11.983Z,14.35
2022-08-27T20:47:16.711Z,13.32
2022-08-27T20:49:21.406Z,14.63
2022-08-27T20:51:24.798Z,15.00
2022-08-27T20:53:28.053Z,15.88
2022-08-27T20:55:30.846Z,15.15
2022-08-27T20:57:33.529Z,14.50
2022-08-27T20:59:55.510Z,13.30
2022-08-27T21:01:58.321Z,14.40
2022-08-27T21:04:00.964Z,13.02
2022-08-27T21:06:03.700Z,12.57
2022-08-27T21:08:07.460Z,14.15
2022-08-27T21:10:10.562Z,16.27
2022-08-27T21:12:13.362Z,15.80
2022-08-27T21:14:27.979Z,13.88
2022-08-27T21:16:31.952Z,13.27
2022-08-27T21:18:34.675Z,13.32
2022-08-27T21:20:37.577Z,14.63
2022-08-27T21:22:40.535Z,14.13
2022-08-27T21:24:43.072Z,14.35
2022-08-27T21:26:45.697Z,14.10
2022-08-27T21:28:48.306Z,14.63
2022-08-27T21:30:58.423Z,13.55
2022-08-27T21:33:02.455Z,13.43
2022-08-27T21:35:06.191Z,15.27
2022-08-27T21:37:09.165Z,14.23
2022-08-27T21:39:13.124Z,14.07
2022-08-27T21:43:18.330Z,16.45
2022-08-27T21:45:21.357Z,15.43
2022-08-27T21:47:23.949Z,16.63
2022-08-27T21:49:27.954Z,15.82
2022-08-27T21:51:31.849Z,15.15
2022-08-27T21:53:34.455Z,14.15
2022-08-27T21:55:37.080Z,14.15
2022-08-27T21:57:39.937Z,13.45
2022-08-27T21:59:45.457Z,13.88
2022-08-27T22:02:00.132Z,14.60
2022-08-27T22:04:03.760Z,14.25
2022-08-27T22:06:11.231Z,13.02
2022-08-27T22:08:15.805Z,14.05
2022-08-27T22:10:18.473Z,14.20
2022-08-27T22:12:21.078Z,14.70
2022-08-27T22:14:24.148Z,15.80
2022-08-27T22:16:26.813Z,15.07
2022-08-27T22:18:29.493Z,15.95
2022-08-27T22:20:32.550Z,15.07
2022-08-27T22:22:36.539Z,15.77
2022-08-27T22:24:39.137Z,16.48
2022-08-27T22:26:42.096Z,15.88
2022-08-27T22:28:44.684Z,16.42
2022-08-27T22:30:47.324Z,15.50
2022-08-27T22:32:50.061Z,16.67
2022-08-27T22:34:52.766Z,14.85
2022-08-27T22:36:55.365Z,15.23
2022-08-27T22:39:03.420Z,15.38
2022-08-27T22:41:06.914Z,15.15
2022-08-27T22:43:09.570Z,14.98
2022-08-27T22:45:12.582Z,15.90
2022-08-27T22:47:15.353Z,16.73
2022-08-27T22:49:18.093Z,16.17
2022-08-27T22:51:20.713Z,15.52
2022-08-27T22:53:23.369Z,16.88
2022-08-27T22:55:28.004Z,17.55
2022-08-27T22:57:30.665Z,14.88
2022-08-27T22:59:33.535Z,15.10
2022-08-27T23:01:38.597Z,14.90
2022-08-27T23:03:41.426Z,14.85
2022-08-27T23:05:44.319Z,17.10
2022-08-27T23:07:47.073Z,17.05
2022-08-27T23:09:49.689Z,15.43
2022-08-27T23:11:53.631Z,16.20
2022-08-27T23:13:56.246Z,16.23
2022-08-27T23:15:59.085Z,16.10
2022-08-27T23:18:01.756Z,14.60
2022-08-27T23:20:06.057Z,15.85
2022-08-27T23:22:08.926Z,16.40
2022-08-27T23:24:11.975Z,17.05
2022-08-27T23:26:32.097Z,17.45
2022-08-27T23:28:36.097Z,16.98
2022-08-27T23:30:39.578Z,15.68
2022-08-27T23:32:46.362Z,17.52
2022-08-27T23:34:56.724Z,15.88
2022-08-27T23:36:59.284Z,16.02
2022-08-27T23:39:02.167Z,15.23
2022-08-27T23:41:05.661Z,15.55
2022-08-27T23:43:08.305Z,16.10
2022-08-27T23:45:17.023Z,17.88
2022-08-27T23:47:19.813Z,19.75
2022-08-27T23:49:22.412Z,19.88
2022-08-27T23:51:25.318Z,19.98
2022-08-27T23:53:27.901Z,19.35
2022-08-27T23:55:30.708Z,17.20
2022-08-27T23:57:33.322Z,17.60
2022-08-27T23:59:35.894Z,16.38
